Aviation Digital Data Service (ADDS)

Output produced by METARs form (1936 UTC 17 February 2018)
found at http://aviationweather.gov/adds/metars/
 
KLWB 171729Z 1718/1818 12006KT 3SM -SNPL OVC020 
     TEMPO 1718/1722 1/2SM SN FG OVC007 
     FM172300 13004KT 2SM +PLRA OVC010 
     TEMPO 1723/1724 1/2SM FZRA OVC003 
     FM180100 VRB03KT P6SM OVC008 
     TEMPO 1801/1802 -PLRA OVC003 
     FM180300 26004KT P6SM -SN OVC008 WS020/27035KT 
     FM180500 28006KT P6SM BKN015 
     FM180900 30009KT P6SM BKN035 
     FM181700 VRB03KT P6SM FEW250